sensor_id;sensor_type;location;lat;lon;timestamp;temperature;humidity
44763;DHT22;30483;49.576;6.036;2024-02-16T04:32:34;15.30;99.90
44763;DHT22;30483;49.576;6.036;2024-02-16T04:35:00;15.30;99.90
44763;DHT22;30483;49.576;6.036;2024-02-16T04:37:26;15.30;99.90
44763;DHT22;30483;49.576;6.036;2024-02-16T04:39:52;15.20;99.90
44763;DHT22;30483;49.576;6.036;2024-02-16T04:42:17;15.20;99.90
44763;DHT22;30483;49.576;6.036;2024-02-16T04:44:43;15.30;99.90
44763;DHT22;30483;49.576;6.036;2024-02-16T04:47:09;15.20;99.90
44763;DHT22;30483;49.576;6.036;2024-02-16T04:49:35;15.20;99.90
44763;DHT22;30483;49.576;6.036;2024-02-16T04:52:01;15.20;99.90
44763;DHT22;30483;49.576;6.036;2024-02-16T04:54:26;15.20;99.90
44763;DHT22;30483;49.576;6.036;2024-02-16T04:56:52;15.30;99.90
44763;DHT22;30483;49.576;6.036;2024-02-16T04:59:17;15.20;99.90
44763;DHT22;30483;49.576;6.036;2024-02-16T05:01:46;15.20;99.90
44763;DHT22;30483;49.576;6.036;2024-02-16T05:04:12;15.20;99.90
44763;DHT22;30483;49.576;6.036;2024-02-16T05:06:43;15.20;99.90
44763;DHT22;30483;49.576;6.036;2024-02-16T05:09:08;15.20;99.90
44763;DHT22;30483;49.576;6.036;2024-02-16T05:11:34;15.20;99.90
44763;DHT22;30483;49.576;6.036;2024-02-16T05:14:00;15.20;99.90
44763;DHT22;30483;49.576;6.036;2024-02-16T05:16:27;15.20;99.90
44763;DHT22;30483;49.576;6.036;2024-02-16T05:18:52;15.20;99.90
44763;DHT22;30483;49.576;6.036;2024-02-16T05:21:18;15.30;99.90
44763;DHT22;30483;49.576;6.036;2024-02-16T05:23:44;15.20;99.90
44763;DHT22;30483;49.576;6.036;2024-02-16T05:26:09;15.30;99.90
44763;DHT22;30483;49.576;6.036;2024-02-16T05:28:35;15.20;99.90
44763;DHT22;30483;49.576;6.036;2024-02-16T05:31:13;15.30;99.90
44763;DHT22;30483;49.576;6.036;2024-02-16T05:33:43;15.30;99.90
44763;DHT22;30483;49.576;6.036;2024-02-16T05:36:10;15.30;99.90
44763;DHT22;30483;49.576;6.036;2024-02-16T05:38:35;15.30;99.90
44763;DHT22;30483;49.576;6.036;2024-02-16T05:41:09;15.30;99.90
44763;DHT22;30483;49.576;6.036;2024-02-16T05:43:36;15.30;99.90
44763;DHT22;30483;49.576;6.036;2024-02-16T05:46:03;15.30;99.90
44763;DHT22;30483;49.576;6.036;2024-02-16T05:48:34;15.30;99.90
44763;DHT22;30483;49.576;6.036;2024-02-16T05:51:04;15.30;99.90
44763;DHT22;30483;49.576;6.036;2024-02-16T05:53:31;15.30;99.90
44763;DHT22;30483;49.576;6.036;2024-02-16T05:55:57;15.30;99.90
44763;DHT22;30483;49.576;6.036;2024-02-16T05:58:23;15.30;99.90
44763;DHT22;30483;49.576;6.036;2024-02-16T06:00:49;15.30;99.90
44763;DHT22;30483;49.576;6.036;2024-02-16T06:03:15;15.30;99.90
44763;DHT22;30483;49.576;6.036;2024-02-16T06:05:41;15.30;99.90
44763;DHT22;30483;49.576;6.036;2024-02-16T06:08:10;15.30;99.90
44763;DHT22;30483;49.576;6.036;2024-02-16T06:10:36;15.30;99.90
44763;DHT22;30483;49.576;6.036;2024-02-16T06:13:01;15.30;99.90
44763;DHT22;30483;49.576;6.036;2024-02-16T06:15:27;15.30;99.90
44763;DHT22;30483;49.576;6.036;2024-02-16T06:17:52;15.30;99.90
44763;DHT22;30483;49.576;6.036;2024-02-16T06:20:18;15.40;99.90
44763;DHT22;30483;49.576;6.036;2024-02-16T06:22:44;15.30;99.90
44763;DHT22;30483;49.576;6.036;2024-02-16T06:25:09;15.30;99.90
44763;DHT22;30483;49.576;6.036;2024-02-16T06:27:35;15.30;99.90
44763;DHT22;30483;49.576;6.036;2024-02-16T06:30:02;15.30;99.90
44763;DHT22;30483;49.576;6.036;2024-02-16T06:32:29;15.30;99.90
44763;DHT22;30483;49.576;6.036;2024-02-16T06:34:56;15.30;99.90
44763;DHT22;30483;49.576;6.036;2024-02-16T06:37:22;15.30;99.90
44763;DHT22;30483;49.576;6.036;2024-02-16T06:39:48;15.30;99.90
44763;DHT22;30483;49.576;6.036;2024-02-16T06:42:13;15.30;99.90
44763;DHT22;30483;49.576;6.036;2024-02-16T06:44:39;15.20;99.90
44763;DHT22;30483;49.576;6.036;2024-02-16T06:47:05;15.30;99.90
44763;DHT22;30483;49.576;6.036;2024-02-16T06:49:31;15.30;99.90
44763;DHT22;30483;49.576;6.036;2024-02-16T06:51:57;15.30;99.90
44763;DHT22;30483;49.576;6.036;2024-02-16T06:54:23;15.20;99.90
44763;DHT22;30483;49.576;6.036;2024-02-16T06:56:49;15.30;99.90
44763;DHT22;30483;49.576;6.036;2024-02-16T06:59:17;15.20;99.90
44763;DHT22;30483;49.576;6.036;2024-02-16T07:01:42;15.20;99.90
44763;DHT22;30483;49.576;6.036;2024-02-16T07:04:08;15.30;99.90
44763;DHT22;30483;49.576;6.036;2024-02-16T07:06:34;15.30;99.90
44763;DHT22;30483;49.576;6.036;2024-02-16T07:09:00;15.20;99.90
44763;DHT22;30483;49.576;6.036;2024-02-16T07:11:26;15.20;99.90
44763;DHT22;30483;49.576;6.036;2024-02-16T07:13:52;15.20;99.90
44763;DHT22;30483;49.576;6.036;2024-02-16T07:16:17;15.20;99.90
44763;DHT22;30483;49.576;6.036;2024-02-16T07:18:45;15.20;99.90
44763;DHT22;30483;49.576;6.036;2024-02-16T07:21:10;15.20;99.90
44763;DHT22;30483;49.576;6.036;2024-02-16T07:23:37;15.20;99.90
44763;DHT22;30483;49.576;6.036;2024-02-16T07:26:03;15.20;99.90
44763;DHT22;30483;49.576;6.036;2024-02-16T07:28:28;15.20;99.90
44763;DHT22;30483;49.576;6.036;2024-02-16T07:30:54;15.20;99.90
44763;DHT22;30483;49.576;6.036;2024-02-16T07:33:20;15.10;99.90
44763;DHT22;30483;49.576;6.036;2024-02-16T07:35:47;15.10;99.90
44763;DHT22;30483;49.576;6.036;2024-02-16T07:38:13;15.10;99.90
44763;DHT22;30483;49.576;6.036;2024-02-16T07:40:38;15.10;99.90
44763;DHT22;30483;49.576;6.036;2024-02-16T07:43:04;15.10;99.90
44763;DHT22;30483;49.576;6.036;2024-02-16T07:45:30;15.10;99.90
44763;DHT22;30483;49.576;6.036;2024-02-16T07:47:57;15.20;99.90
44763;DHT22;30483;49.576;6.036;2024-02-16T07:50:23;15.20;99.90
44763;DHT22;30483;49.576;6.036;2024-02-16T07:52:49;15.20;99.90
44763;DHT22;30483;49.576;6.036;2024-02-16T07:55:15;15.10;99.90
44763;DHT22;30483;49.576;6.036;2024-02-16T07:57:44;14.90;99.90
44763;DHT22;30483;49.576;6.036;2024-02-16T08:00:10;14.80;99.90
44763;DHT22;30483;49.576;6.036;2024-02-16T08:02:37;14.80;99.90
44763;DHT22;30483;49.576;6.036;2024-02-16T08:05:04;14.80;99.90
44763;DHT22;30483;49.576;6.036;2024-02-16T08:07:31;14.90;99.90
44763;DHT22;30483;49.576;6.036;2024-02-16T08:09:57;14.90;99.90
44763;DHT22;30483;49.576;6.036;2024-02-16T08:12:23;14.90;99.90
44763;DHT22;30483;49.576;6.036;2024-02-16T08:14:51;15.00;99.90
44763;DHT22;30483;49.576;6.036;2024-02-16T08:17:16;15.00;99.90
44763;DHT22;30483;49.576;6.036;2024-02-16T08:19:42;15.00;99.90
44763;DHT22;30483;49.576;6.036;2024-02-16T08:22:08;15.00;99.90
44763;DHT22;30483;49.576;6.036;2024-02-16T08:24:37;15.00;99.90
44763;DHT22;30483;49.576;6.036;2024-02-16T08:27:03;15.00;99.90
44763;DHT22;30483;49.576;6.036;2024-02-16T08:29:30;15.00;99.90
44763;DHT22;30483;49.576;6.036;2024-02-16T08:31:56;15.00;99.90
44763;DHT22;30483;49.576;6.036;2024-02-16T08:34:21;15.00;99.90
44763;DHT22;30483;49.576;6.036;2024-02-16T08:36:48;14.90;99.90
44763;DHT22;30483;49.576;6.036;2024-02-16T08:39:14;14.90;99.90
44763;DHT22;30483;49.576;6.036;2024-02-16T08:41:40;15.00;99.90
44763;DHT22;30483;49.576;6.036;2024-02-16T08:44:07;15.00;99.90
44763;DHT22;30483;49.576;6.036;2024-02-16T08:46:36;15.00;99.90
44763;DHT22;30483;49.576;6.036;2024-02-16T08:49:02;15.00;99.90
44763;DHT22;30483;49.576;6.036;2024-02-16T08:51:28;15.00;99.90
44763;DHT22;30483;49.576;6.036;2024-02-16T08:53:54;15.00;99.90
44763;DHT22;30483;49.576;6.036;2024-02-16T08:56:20;15.00;99.90
44763;DHT22;30483;49.576;6.036;2024-02-16T08:58:46;15.00;99.90
44763;DHT22;30483;49.576;6.036;2024-02-16T09:01:12;15.00;99.90
44763;DHT22;30483;49.576;6.036;2024-02-16T09:03:37;15.00;99.90
44763;DHT22;30483;49.576;6.036;2024-02-16T09:06:05;15.00;99.90
44763;DHT22;30483;49.576;6.036;2024-02-16T09:08:32;15.00;99.90
44763;DHT22;30483;49.576;6.036;2024-02-16T09:11:03;14.90;99.90
44763;DHT22;30483;49.576;6.036;2024-02-16T09:13:32;15.00;99.90
44763;DHT22;30483;49.576;6.036;2024-02-16T09:15:57;15.00;99.90
44763;DHT22;30483;49.576;6.036;2024-02-16T09:18:23;15.00;99.90
44763;DHT22;30483;49.576;6.036;2024-02-16T09:20:49;15.00;99.90
44763;DHT22;30483;49.576;6.036;2024-02-16T09:23:14;15.00;99.90
44763;DHT22;30483;49.576;6.036;2024-02-16T09:25:41;15.00;99.90
44763;DHT22;30483;49.576;6.036;2024-02-16T09:28:06;15.00;99.90
44763;DHT22;30483;49.576;6.036;2024-02-16T09:30:32;14.90;99.90
44763;DHT22;30483;49.576;6.036;2024-02-16T09:32:58;15.00;99.90
44763;DHT22;30483;49.576;6.036;2024-02-16T09:35:24;15.00;99.90
44763;DHT22;30483;49.576;6.036;2024-02-16T09:37:49;15.00;99.90
44763;DHT22;30483;49.576;6.036;2024-02-16T09:40:15;15.00;99.90
44763;DHT22;30483;49.576;6.036;2024-02-16T09:42:41;14.90;99.90
44763;DHT22;30483;49.576;6.036;2024-02-16T09:45:07;15.00;99.90
44763;DHT22;30483;49.576;6.036;2024-02-16T09:47:33;15.00;99.90
44763;DHT22;30483;49.576;6.036;2024-02-16T09:50:00;15.00;99.90
44763;DHT22;30483;49.576;6.036;2024-02-16T09:52:26;15.00;99.90
44763;DHT22;30483;49.576;6.036;2024-02-16T09:54:52;15.00;99.90
44763;DHT22;30483;49.576;6.036;2024-02-16T09:57:18;15.10;99.90
44763;DHT22;30483;49.576;6.036;2024-02-16T09:59:44;15.10;99.90
44763;DHT22;30483;49.576;6.036;2024-02-16T10:02:10;15.10;99.90
44763;DHT22;30483;49.576;6.036;2024-02-16T10:04:36;15.10;99.90
44763;DHT22;30483;49.576;6.036;2024-02-16T10:07:02;15.10;99.90
44763;DHT22;30483;49.576;6.036;2024-02-16T10:09:29;15.00;99.90
44763;DHT22;30483;49.576;6.036;2024-02-16T10:11:54;15.10;99.90
44763;DHT22;30483;49.576;6.036;2024-02-16T10:14:20;15.10;99.90
44763;DHT22;30483;49.576;6.036;2024-02-16T10:17:02;15.10;99.90
44763;DHT22;30483;49.576;6.036;2024-02-16T10:19:29;15.10;99.90
44763;DHT22;30483;49.576;6.036;2024-02-16T10:22:14;15.10;99.90
44763;DHT22;30483;49.576;6.036;2024-02-16T10:24:40;15.30;99.90
44763;DHT22;30483;49.576;6.036;2024-02-16T10:27:06;15.40;99.90
44763;DHT22;30483;49.576;6.036;2024-02-16T10:29:35;15.40;99.90
44763;DHT22;30483;49.576;6.036;2024-02-16T10:32:02;15.10;99.90
44763;DHT22;30483;49.576;6.036;2024-02-16T10:34:28;15.00;99.90
44763;DHT22;30483;49.576;6.036;2024-02-16T10:36:55;15.00;99.90
44763;DHT22;30483;49.576;6.036;2024-02-16T10:39:24;15.00;99.90
44763;DHT22;30483;49.576;6.036;2024-02-16T10:41:51;15.00;99.90
44763;DHT22;30483;49.576;6.036;2024-02-16T10:44:17;15.00;99.90
44763;DHT22;30483;49.576;6.036;2024-02-16T10:46:43;15.00;99.90
44763;DHT22;30483;49.576;6.036;2024-02-16T10:49:08;15.00;99.90
44763;DHT22;30483;49.576;6.036;2024-02-16T10:51:49;15.00;99.90
44763;DHT22;30483;49.576;6.036;2024-02-16T10:54:20;15.00;99.90
44763;DHT22;30483;49.576;6.036;2024-02-16T10:56:47;15.00;99.90
44763;DHT22;30483;49.576;6.036;2024-02-16T10:59:13;15.00;99.90
44763;DHT22;30483;49.576;6.036;2024-02-16T11:01:42;15.00;99.90
44763;DHT22;30483;49.576;6.036;2024-02-16T11:04:15;15.10;99.90
44763;DHT22;30483;49.576;6.036;2024-02-16T11:06:56;15.10;99.90
44763;DHT22;30483;49.576;6.036;2024-02-16T11:09:29;15.00;99.90
44763;DHT22;30483;49.576;6.036;2024-02-16T11:11:58;15.00;99.90
44763;DHT22;30483;49.576;6.036;2024-02-16T11:14:24;15.10;99.90
44763;DHT22;30483;49.576;6.036;2024-02-16T11:16:58;15.00;99.90
44763;DHT22;30483;49.576;6.036;2024-02-16T11:19:24;15.00;99.90
44763;DHT22;30483;49.576;6.036;2024-02-16T11:22:03;15.10;99.90
44763;DHT22;30483;49.576;6.036;2024-02-16T11:24:33;15.10;99.90
44763;DHT22;30483;49.576;6.036;2024-02-16T11:27:00;15.10;99.90
44763;DHT22;30483;49.576;6.036;2024-02-16T11:29:31;15.10;99.90
44763;DHT22;30483;49.576;6.036;2024-02-16T11:31:57;15.10;99.90
44763;DHT22;30483;49.576;6.036;2024-02-16T11:34:23;15.10;99.90
44763;DHT22;30483;49.576;6.036;2024-02-16T11:36:53;15.10;99.90
44763;DHT22;30483;49.576;6.036;2024-02-16T11:39:19;15.10;99.90
44763;DHT22;30483;49.576;6.036;2024-02-16T11:41:45;15.10;99.90
44763;DHT22;30483;49.576;6.036;2024-02-16T11:44:13;15.10;99.90
44763;DHT22;30483;49.576;6.036;2024-02-16T11:46:39;15.10;99.90
44763;DHT22;30483;49.576;6.036;2024-02-16T11:49:06;15.00;99.90
44763;DHT22;30483;49.576;6.036;2024-02-16T11:51:32;15.00;99.90
44763;DHT22;30483;49.576;6.036;2024-02-16T11:53:59;15.10;99.90
44763;DHT22;30483;49.576;6.036;2024-02-16T11:56:25;15.10;99.90
44763;DHT22;30483;49.576;6.036;2024-02-16T11:58:51;15.00;99.90
44763;DHT22;30483;49.576;6.036;2024-02-16T12:01:17;15.00;99.90
44763;DHT22;30483;49.576;6.036;2024-02-16T12:03:43;15.00;99.90
44763;DHT22;30483;49.576;6.036;2024-02-16T12:06:08;15.00;99.90
44763;DHT22;30483;49.576;6.036;2024-02-16T12:08:35;15.00;99.90
44763;DHT22;30483;49.576;6.036;2024-02-16T12:11:02;15.00;99.90
44763;DHT22;30483;49.576;6.036;2024-02-16T12:13:28;15.00;99.90
44763;DHT22;30483;49.576;6.036;2024-02-16T12:15:53;15.00;99.90
44763;DHT22;30483;49.576;6.036;2024-02-16T12:18:25;15.00;99.90
44763;DHT22;30483;49.576;6.036;2024-02-16T12:20:58;15.00;99.90
44763;DHT22;30483;49.576;6.036;2024-02-16T12:23:24;15.00;99.90
44763;DHT22;30483;49.576;6.036;2024-02-16T12:25:49;15.00;99.90
44763;DHT22;30483;49.576;6.036;2024-02-16T12:28:15;15.00;99.90
44763;DHT22;30483;49.576;6.036;2024-02-16T12:30:40;15.00;99.90
44763;DHT22;30483;49.576;6.036;2024-02-16T12:33:06;15.00;99.90
44763;DHT22;30483;49.576;6.036;2024-02-16T12:35:32;15.00;99.90
44763;DHT22;30483;49.576;6.036;2024-02-16T12:37:57;15.00;99.90
44763;DHT22;30483;49.576;6.036;2024-02-16T12:40:23;15.00;99.90
44763;DHT22;30483;49.576;6.036;2024-02-16T12:42:48;15.10;99.90
44763;DHT22;30483;49.576;6.036;2024-02-16T12:45:14;15.10;99.90
44763;DHT22;30483;49.576;6.036;2024-02-16T12:47:41;15.10;99.90
44763;DHT22;30483;49.576;6.036;2024-02-16T12:50:07;15.00;99.90
44763;DHT22;30483;49.576;6.036;2024-02-16T12:55:01;15.00;99.90
44763;DHT22;30483;49.576;6.036;2024-02-16T12:57:26;15.00;99.90
44763;DHT22;30483;49.576;6.036;2024-02-16T12:59:54;15.10;99.90
44763;DHT22;30483;49.576;6.036;2024-02-16T13:02:20;15.00;99.90
44763;DHT22;30483;49.576;6.036;2024-02-16T13:04:45;15.10;99.90
44763;DHT22;30483;49.576;6.036;2024-02-16T13:07:11;15.10;99.90
44763;DHT22;30483;49.576;6.036;2024-02-16T13:09:36;15.00;99.90
44763;DHT22;30483;49.576;6.036;2024-02-16T13:12:02;15.00;99.90
44763;DHT22;30483;49.576;6.036;2024-02-16T13:14:28;15.10;99.90
44763;DHT22;30483;49.576;6.036;2024-02-16T13:16:54;15.00;99.90
44763;DHT22;30483;49.576;6.036;2024-02-16T13:19:19;15.00;99.90
44763;DHT22;30483;49.576;6.036;2024-02-16T13:21:45;15.00;99.90
44763;DHT22;30483;49.576;6.036;2024-02-16T13:24:10;15.00;99.90
44763;DHT22;30483;49.576;6.036;2024-02-16T13:26:36;15.00;99.90
44763;DHT22;30483;49.576;6.036;2024-02-16T13:29:01;15.00;99.90
44763;DHT22;30483;49.576;6.036;2024-02-16T13:31:28;15.00;99.90
44763;DHT22;30483;49.576;6.036;2024-02-16T13:33:54;15.00;99.90
44763;DHT22;30483;49.576;6.036;2024-02-16T13:36:20;15.00;99.90
44763;DHT22;30483;49.576;6.036;2024-02-16T13:38:46;15.00;99.90
44763;DHT22;30483;49.576;6.036;2024-02-16T13:41:11;15.00;99.90
44763;DHT22;30483;49.576;6.036;2024-02-16T13:43:37;15.00;99.90
44763;DHT22;30483;49.576;6.036;2024-02-16T13:48:29;15.00;99.90
44763;DHT22;30483;49.576;6.036;2024-02-16T13:50:55;15.00;99.90
44763;DHT22;30483;49.576;6.036;2024-02-16T13:53:21;15.00;99.90
44763;DHT22;30483;49.576;6.036;2024-02-16T13:55:48;15.00;99.90
44763;DHT22;30483;49.576;6.036;2024-02-16T13:58:14;15.00;99.90
44763;DHT22;30483;49.576;6.036;2024-02-16T14:00:40;15.10;99.90
44763;DHT22;30483;49.576;6.036;2024-02-16T14:03:10;15.10;99.90
44763;DHT22;30483;49.576;6.036;2024-02-16T14:05:37;15.00;99.90
44763;DHT22;30483;49.576;6.036;2024-02-16T14:08:04;15.10;99.90
44763;DHT22;30483;49.576;6.036;2024-02-16T14:10:30;15.00;99.90
44763;DHT22;30483;49.576;6.036;2024-02-16T14:12:57;15.00;99.90
44763;DHT22;30483;49.576;6.036;2024-02-16T14:15:23;15.00;99.90
44763;DHT22;30483;49.576;6.036;2024-02-16T14:17:49;15.00;99.90
44763;DHT22;30483;49.576;6.036;2024-02-16T14:20:14;15.00;99.90
44763;DHT22;30483;49.576;6.036;2024-02-16T14:22:40;15.00;99.90
44763;DHT22;30483;49.576;6.036;2024-02-16T14:25:06;15.00;99.90
44763;DHT22;30483;49.576;6.036;2024-02-16T14:27:32;15.10;99.90
44763;DHT22;30483;49.576;6.036;2024-02-16T14:29:58;15.00;99.90
44763;DHT22;30483;49.576;6.036;2024-02-16T14:32:23;15.10;99.90
44763;DHT22;30483;49.576;6.036;2024-02-16T14:34:49;15.10;99.90
44763;DHT22;30483;49.576;6.036;2024-02-16T14:37:14;15.10;99.90
44763;DHT22;30483;49.576;6.036;2024-02-16T14:39:40;15.00;99.90
44763;DHT22;30483;49.576;6.036;2024-02-16T14:42:06;15.10;99.90
44763;DHT22;30483;49.576;6.036;2024-02-16T14:44:31;15.10;99.90
44763;DHT22;30483;49.576;6.036;2024-02-16T14:46:57;15.10;99.90
44763;DHT22;30483;49.576;6.036;2024-02-16T14:49:22;15.10;99.90
44763;DHT22;30483;49.576;6.036;2024-02-16T14:51:50;15.10;99.90
44763;DHT22;30483;49.576;6.036;2024-02-16T14:54:18;15.10;99.90
44763;DHT22;30483;49.576;6.036;2024-02-16T14:56:43;15.10;99.90
44763;DHT22;30483;49.576;6.036;2024-02-16T14:59:09;15.10;99.90
44763;DHT22;30483;49.576;6.036;2024-02-16T15:01:36;15.00;99.90
44763;DHT22;30483;49.576;6.036;2024-02-16T15:11:24;15.00;99.90
44763;DHT22;30483;49.576;6.036;2024-02-16T15:13:50;15.10;99.90
44763;DHT22;30483;49.576;6.036;2024-02-16T15:16:16;15.00;99.90
44763;DHT22;30483;49.576;6.036;2024-02-16T15:18:42;15.10;99.90
44763;DHT22;30483;49.576;6.036;2024-02-16T15:21:07;15.10;99.90
44763;DHT22;30483;49.576;6.036;2024-02-16T15:23:33;15.00;99.90
44763;DHT22;30483;49.576;6.036;2024-02-16T15:25:58;15.10;99.90
44763;DHT22;30483;49.576;6.036;2024-02-16T15:28:25;15.00;99.90
44763;DHT22;30483;49.576;6.036;2024-02-16T15:30:51;15.10;99.90
44763;DHT22;30483;49.576;6.036;2024-02-16T15:33:16;15.10;99.90
44763;DHT22;30483;49.576;6.036;2024-02-16T15:35:42;15.10;99.90
44763;DHT22;30483;49.576;6.036;2024-02-16T15:38:07;15.10;99.90
44763;DHT22;30483;49.576;6.036;2024-02-16T15:40:33;15.20;99.90
44763;DHT22;30483;49.576;6.036;2024-02-16T15:43:03;15.30;99.90
44763;DHT22;30483;49.576;6.036;2024-02-16T15:45:31;15.40;99.90
44763;DHT22;30483;49.576;6.036;2024-02-16T15:47:57;15.50;99.90
44763;DHT22;30483;49.576;6.036;2024-02-16T15:50:23;15.50;99.90
44763;DHT22;30483;49.576;6.036;2024-02-16T15:52:49;15.60;99.90
44763;DHT22;30483;49.576;6.036;2024-02-16T15:55:15;15.70;99.90
44763;DHT22;30483;49.576;6.036;2024-02-16T15:57:40;15.70;99.90
44763;DHT22;30483;49.576;6.036;2024-02-16T16:00:07;15.70;99.90
44763;DHT22;30483;49.576;6.036;2024-02-16T16:02:34;15.70;99.90
44763;DHT22;30483;49.576;6.036;2024-02-16T16:05:00;15.80;99.90
44763;DHT22;30483;49.576;6.036;2024-02-16T16:07:25;15.80;99.90
44763;DHT22;30483;49.576;6.036;2024-02-16T16:09:54;15.90;99.90
44763;DHT22;30483;49.576;6.036;2024-02-16T16:12:22;15.90;99.90
44763;DHT22;30483;49.576;6.036;2024-02-16T16:14:50;15.90;99.90
44763;DHT22;30483;49.576;6.036;2024-02-16T16:17:17;15.90;99.90
44763;DHT22;30483;49.576;6.036;2024-02-16T16:19:42;15.90;99.90
44763;DHT22;30483;49.576;6.036;2024-02-16T16:22:08;15.90;99.90
44763;DHT22;30483;49.576;6.036;2024-02-16T16:24:33;15.90;99.90
44763;DHT22;30483;49.576;6.036;2024-02-16T16:26:59;15.90;99.90
44763;DHT22;30483;49.576;6.036;2024-02-16T16:29:24;15.90;99.90
44763;DHT22;30483;49.576;6.036;2024-02-16T16:31:51;15.90;99.90
44763;DHT22;30483;49.576;6.036;2024-02-16T16:34:18;15.90;99.90
44763;DHT22;30483;49.576;6.036;2024-02-16T16:36:44;16.00;99.90
44763;DHT22;30483;49.576;6.036;2024-02-16T16:39:10;16.00;99.90
44763;DHT22;30483;49.576;6.036;2024-02-16T16:41:35;16.00;99.90
44763;DHT22;30483;49.576;6.036;2024-02-16T16:44:01;16.00;99.90
44763;DHT22;30483;49.576;6.036;2024-02-16T16:46:27;16.00;99.90
44763;DHT22;30483;49.576;6.036;2024-02-16T16:48:53;16.00;99.90
44763;DHT22;30483;49.576;6.036;2024-02-16T16:51:18;16.00;99.90
44763;DHT22;30483;49.576;6.036;2024-02-16T16:53:44;16.00;99.90
44763;DHT22;30483;49.576;6.036;2024-02-16T16:56:10;16.00;99.90
44763;DHT22;30483;49.576;6.036;2024-02-16T16:58:36;16.00;99.90
44763;DHT22;30483;49.576;6.036;2024-02-16T17:01:01;16.00;99.90
44763;DHT22;30483;49.576;6.036;2024-02-16T17:03:27;16.00;99.90
44763;DHT22;30483;49.576;6.036;2024-02-16T17:05:52;15.90;99.90
44763;DHT22;30483;49.576;6.036;2024-02-16T17:08:18;15.90;99.90
44763;DHT22;30483;49.576;6.036;2024-02-16T17:10:44;16.00;99.90
44763;DHT22;30483;49.576;6.036;2024-02-16T17:13:09;16.00;99.90
44763;DHT22;30483;49.576;6.036;2024-02-16T17:15:35;15.90;99.90
44763;DHT22;30483;49.576;6.036;2024-02-16T17:18:01;15.90;99.90
44763;DHT22;30483;49.576;6.036;2024-02-16T17:20:27;16.00;99.90
44763;DHT22;30483;49.576;6.036;2024-02-16T17:22:53;16.00;99.90
44763;DHT22;30483;49.576;6.036;2024-02-16T17:25:19;15.90;99.90
44763;DHT22;30483;49.576;6.036;2024-02-16T17:27:49;16.00;99.90
44763;DHT22;30483;49.576;6.036;2024-02-16T17:30:15;16.00;99.90
44763;DHT22;30483;49.576;6.036;2024-02-16T17:32:47;16.00;99.90
44763;DHT22;30483;49.576;6.036;2024-02-16T17:35:14;16.00;99.90
44763;DHT22;30483;49.576;6.036;2024-02-16T17:37:41;15.90;99.90
44763;DHT22;30483;49.576;6.036;2024-02-16T17:40:13;16.00;99.90
44763;DHT22;30483;49.576;6.036;2024-02-16T17:42:38;16.00;99.90
44763;DHT22;30483;49.576;6.036;2024-02-16T17:45:05;15.90;99.90
44763;DHT22;30483;49.576;6.036;2024-02-16T17:47:33;16.00;99.90
44763;DHT22;30483;49.576;6.036;2024-02-16T17:49:59;16.00;99.90
44763;DHT22;30483;49.576;6.036;2024-02-16T17:52:25;16.00;99.90
44763;DHT22;30483;49.576;6.036;2024-02-16T17:54:51;15.90;99.90
44763;DHT22;30483;49.576;6.036;2024-02-16T17:57:17;15.90;99.90
44763;DHT22;30483;49.576;6.036;2024-02-16T17:59:42;15.90;99.90
44763;DHT22;30483;49.576;6.036;2024-02-16T18:02:16;15.90;99.90
44763;DHT22;30483;49.576;6.036;2024-02-16T18:04:45;15.90;99.90
44763;DHT22;30483;49.576;6.036;2024-02-16T18:07:11;15.90;99.90
44763;DHT22;30483;49.576;6.036;2024-02-16T18:09:43;15.90;99.90
44763;DHT22;30483;49.576;6.036;2024-02-16T18:12:09;15.90;99.90
44763;DHT22;30483;49.576;6.036;2024-02-16T18:14:35;15.90;99.90
44763;DHT22;30483;49.576;6.036;2024-02-16T18:17:01;15.90;99.90
44763;DHT22;30483;49.576;6.036;2024-02-16T18:19:26;15.90;99.90
44763;DHT22;30483;49.576;6.036;2024-02-16T18:21:52;15.90;99.90
44763;DHT22;30483;49.576;6.036;2024-02-16T18:24:18;15.90;99.90
44763;DHT22;30483;49.576;6.036;2024-02-16T18:26:43;15.90;99.90
44763;DHT22;30483;49.576;6.036;2024-02-16T18:29:09;15.90;99.90
44763;DHT22;30483;49.576;6.036;2024-02-16T18:31:35;15.90;99.90
44763;DHT22;30483;49.576;6.036;2024-02-16T18:34:03;15.90;99.90
44763;DHT22;30483;49.576;6.036;2024-02-16T18:36:29;15.80;99.90
44763;DHT22;30483;49.576;6.036;2024-02-16T18:38:54;15.90;99.90
44763;DHT22;30483;49.576;6.036;2024-02-16T18:41:20;15.80;99.90
44763;DHT22;30483;49.576;6.036;2024-02-16T18:43:46;15.90;99.90
44763;DHT22;30483;49.576;6.036;2024-02-16T18:46:14;15.90;99.90
44763;DHT22;30483;49.576;6.036;2024-02-16T18:48:41;15.90;99.90
44763;DHT22;30483;49.576;6.036;2024-02-16T18:51:07;15.80;99.90
44763;DHT22;30483;49.576;6.036;2024-02-16T18:53:33;15.80;99.90
44763;DHT22;30483;49.576;6.036;2024-02-16T18:55:58;15.80;99.90
44763;DHT22;30483;49.576;6.036;2024-02-16T18:58:24;15.80;99.90
44763;DHT22;30483;49.576;6.036;2024-02-16T19:00:50;15.80;99.90
44763;DHT22;30483;49.576;6.036;2024-02-16T19:03:16;15.80;99.90
44763;DHT22;30483;49.576;6.036;2024-02-16T19:05:41;15.80;99.90
44763;DHT22;30483;49.576;6.036;2024-02-16T19:08:07;15.80;99.90
44763;DHT22;30483;49.576;6.036;2024-02-16T19:10:33;15.80;99.90
44763;DHT22;30483;49.576;6.036;2024-02-16T19:12:59;15.80;99.90
44763;DHT22;30483;49.576;6.036;2024-02-16T19:15:24;15.80;99.90
44763;DHT22;30483;49.576;6.036;2024-02-16T19:17:54;15.80;99.90
44763;DHT22;30483;49.576;6.036;2024-02-16T19:20:20;15.80;99.90
44763;DHT22;30483;49.576;6.036;2024-02-16T19:22:45;15.80;99.90
44763;DHT22;30483;49.576;6.036;2024-02-16T19:25:16;15.80;99.90
44763;DHT22;30483;49.576;6.036;2024-02-16T19:27:43;15.80;99.90
44763;DHT22;30483;49.576;6.036;2024-02-16T19:30:08;15.80;99.90
44763;DHT22;30483;49.576;6.036;2024-02-16T19:32:34;15.80;99.90
44763;DHT22;30483;49.576;6.036;2024-02-16T19:35:00;15.80;99.90
44763;DHT22;30483;49.576;6.036;2024-02-16T19:37:26;15.80;99.90
44763;DHT22;30483;49.576;6.036;2024-02-16T19:39:53;15.80;99.90
44763;DHT22;30483;49.576;6.036;2024-02-16T19:42:19;15.80;99.90
44763;DHT22;30483;49.576;6.036;2024-02-16T19:44:45;15.80;99.90
44763;DHT22;30483;49.576;6.036;2024-02-16T19:47:11;15.80;99.90
44763;DHT22;30483;49.576;6.036;2024-02-16T19:49:36;15.80;99.90
44763;DHT22;30483;49.576;6.036;2024-02-16T19:52:02;15.80;99.90
44763;DHT22;30483;49.576;6.036;2024-02-16T19:54:28;15.80;99.90
44763;DHT22;30483;49.576;6.036;2024-02-16T19:56:53;15.80;99.90
44763;DHT22;30483;49.576;6.036;2024-02-16T19:59:19;15.80;99.90
44763;DHT22;30483;49.576;6.036;2024-02-16T20:01:44;15.80;99.90
44763;DHT22;30483;49.576;6.036;2024-02-16T20:04:10;15.80;99.90
44763;DHT22;30483;49.576;6.036;2024-02-16T20:06:36;15.80;99.90
44763;DHT22;30483;49.576;6.036;2024-02-16T20:09:02;15.80;99.90